sensor_id;sensor_type;location;lat;lon;timestamp;temperature;humidity
45207;DHT22;30950;53.086;21.576;2023-12-20T00:01:14;5.80;99.90
45207;DHT22;30950;53.086;21.576;2023-12-20T00:03:43;5.80;99.90
45207;DHT22;30950;53.086;21.576;2023-12-20T00:06:11;5.80;99.90
45207;DHT22;30950;53.086;21.576;2023-12-20T00:08:38;5.80;99.90
45207;DHT22;30950;53.086;21.576;2023-12-20T00:11:05;5.80;99.90
45207;DHT22;30950;53.086;21.576;2023-12-20T00:13:33;5.80;99.90
45207;DHT22;30950;53.086;21.576;2023-12-20T00:16:00;5.80;99.90
45207;DHT22;30950;53.086;21.576;2023-12-20T00:18:28;5.80;99.90
45207;DHT22;30950;53.086;21.576;2023-12-20T00:20:55;5.80;99.90
45207;DHT22;30950;53.086;21.576;2023-12-20T00:23:23;5.80;99.90
45207;DHT22;30950;53.086;21.576;2023-12-20T00:25:50;5.80;99.90
45207;DHT22;30950;53.086;21.576;2023-12-20T00:28:18;5.80;99.90
45207;DHT22;30950;53.086;21.576;2023-12-20T00:30:45;5.80;99.90
45207;DHT22;30950;53.086;21.576;2023-12-20T00:33:13;5.80;99.90
45207;DHT22;30950;53.086;21.576;2023-12-20T00:35:41;5.80;99.90
45207;DHT22;30950;53.086;21.576;2023-12-20T00:38:09;5.80;99.90
45207;DHT22;30950;53.086;21.576;2023-12-20T00:40:37;5.80;99.90
45207;DHT22;30950;53.086;21.576;2023-12-20T00:43:04;5.80;99.90
45207;DHT22;30950;53.086;21.576;2023-12-20T00:45:32;5.80;99.90
45207;DHT22;30950;53.086;21.576;2023-12-20T00:47:59;5.80;99.90
45207;DHT22;30950;53.086;21.576;2023-12-20T00:50:27;5.80;99.90
45207;DHT22;30950;53.086;21.576;2023-12-20T00:52:56;5.80;99.90
45207;DHT22;30950;53.086;21.576;2023-12-20T00:55:24;5.80;99.90
45207;DHT22;30950;53.086;21.576;2023-12-20T00:57:51;5.70;99.90
45207;DHT22;30950;53.086;21.576;2023-12-20T01:00:20;5.80;99.90
45207;DHT22;30950;53.086;21.576;2023-12-20T01:02:48;5.80;99.90
45207;DHT22;30950;53.086;21.576;2023-12-20T01:05:18;5.80;99.90
45207;DHT22;30950;53.086;21.576;2023-12-20T01:07:46;5.80;99.90
45207;DHT22;30950;53.086;21.576;2023-12-20T01:10:14;5.80;99.90
45207;DHT22;30950;53.086;21.576;2023-12-20T01:12:42;5.80;99.90
45207;DHT22;30950;53.086;21.576;2023-12-20T01:15:10;5.80;99.90
45207;DHT22;30950;53.086;21.576;2023-12-20T01:17:37;5.90;99.90
45207;DHT22;30950;53.086;21.576;2023-12-20T01:20:06;5.80;99.90
45207;DHT22;30950;53.086;21.576;2023-12-20T01:22:33;5.80;99.90
45207;DHT22;30950;53.086;21.576;2023-12-20T01:25:03;5.80;99.90
45207;DHT22;30950;53.086;21.576;2023-12-20T01:27:30;7.60;99.90
45207;DHT22;30950;53.086;21.576;2023-12-20T01:29:58;5.80;99.90
45207;DHT22;30950;53.086;21.576;2023-12-20T01:32:25;5.80;99.90
45207;DHT22;30950;53.086;21.576;2023-12-20T01:34:53;5.80;99.90
45207;DHT22;30950;53.086;21.576;2023-12-20T01:37:20;5.80;99.90
45207;DHT22;30950;53.086;21.576;2023-12-20T01:39:48;5.80;99.90
45207;DHT22;30950;53.086;21.576;2023-12-20T01:42:15;5.90;99.90
45207;DHT22;30950;53.086;21.576;2023-12-20T01:44:43;5.80;99.90
45207;DHT22;30950;53.086;21.576;2023-12-20T01:47:10;5.80;99.90
45207;DHT22;30950;53.086;21.576;2023-12-20T01:49:38;5.80;99.90
45207;DHT22;30950;53.086;21.576;2023-12-20T01:52:05;5.90;99.90
45207;DHT22;30950;53.086;21.576;2023-12-20T01:54:37;5.90;99.90
45207;DHT22;30950;53.086;21.576;2023-12-20T01:57:06;5.90;99.90
45207;DHT22;30950;53.086;21.576;2023-12-20T01:59:34;5.90;99.90
45207;DHT22;30950;53.086;21.576;2023-12-20T02:02:03;5.90;99.90
45207;DHT22;30950;53.086;21.576;2023-12-20T02:04:31;5.90;99.90
45207;DHT22;30950;53.086;21.576;2023-12-20T02:06:59;5.90;99.90
45207;DHT22;30950;53.086;21.576;2023-12-20T02:09:27;5.90;99.90
45207;DHT22;30950;53.086;21.576;2023-12-20T02:11:55;5.90;99.90
45207;DHT22;30950;53.086;21.576;2023-12-20T02:14:23;5.90;99.90
45207;DHT22;30950;53.086;21.576;2023-12-20T02:16:50;5.90;99.90
45207;DHT22;30950;53.086;21.576;2023-12-20T02:19:20;5.80;99.90
45207;DHT22;30950;53.086;21.576;2023-12-20T02:21:47;5.90;99.90
45207;DHT22;30950;53.086;21.576;2023-12-20T02:24:15;5.90;99.90
45207;DHT22;30950;53.086;21.576;2023-12-20T02:26:44;5.90;99.90
45207;DHT22;30950;53.086;21.576;2023-12-20T02:29:13;5.90;99.90
45207;DHT22;30950;53.086;21.576;2023-12-20T02:31:41;5.90;99.90
45207;DHT22;30950;53.086;21.576;2023-12-20T02:34:08;5.90;99.90
45207;DHT22;30950;53.086;21.576;2023-12-20T02:36:36;5.90;99.90
45207;DHT22;30950;53.086;21.576;2023-12-20T02:39:03;5.90;99.90
45207;DHT22;30950;53.086;21.576;2023-12-20T02:41:31;5.90;99.90
45207;DHT22;30950;53.086;21.576;2023-12-20T02:43:59;5.90;99.90
45207;DHT22;30950;53.086;21.576;2023-12-20T02:46:26;5.90;99.90
45207;DHT22;30950;53.086;21.576;2023-12-20T02:48:53;5.90;99.90
45207;DHT22;30950;53.086;21.576;2023-12-20T02:51:21;5.90;99.90
45207;DHT22;30950;53.086;21.576;2023-12-20T02:53:48;5.90;99.90
45207;DHT22;30950;53.086;21.576;2023-12-20T02:56:16;5.90;99.90
45207;DHT22;30950;53.086;21.576;2023-12-20T02:58:43;5.00;99.90
45207;DHT22;30950;53.086;21.576;2023-12-20T03:01:11;6.00;99.90
45207;DHT22;30950;53.086;21.576;2023-12-20T03:03:38;5.90;99.90
45207;DHT22;30950;53.086;21.576;2023-12-20T03:06:06;5.90;99.90
45207;DHT22;30950;53.086;21.576;2023-12-20T03:08:33;5.90;99.90
45207;DHT22;30950;53.086;21.576;2023-12-20T03:11:01;6.00;99.90
45207;DHT22;30950;53.086;21.576;2023-12-20T03:13:28;5.90;99.90
45207;DHT22;30950;53.086;21.576;2023-12-20T03:15:56;5.90;99.90
45207;DHT22;30950;53.086;21.576;2023-12-20T03:18:23;6.00;99.90
45207;DHT22;30950;53.086;21.576;2023-12-20T03:20:51;6.00;99.90
45207;DHT22;30950;53.086;21.576;2023-12-20T03:23:19;6.00;99.90
45207;DHT22;30950;53.086;21.576;2023-12-20T03:25:46;5.60;99.90
45207;DHT22;30950;53.086;21.576;2023-12-20T03:28:15;6.00;99.90
45207;DHT22;30950;53.086;21.576;2023-12-20T03:30:43;6.00;99.90
45207;DHT22;30950;53.086;21.576;2023-12-20T03:33:10;6.00;99.90
45207;DHT22;30950;53.086;21.576;2023-12-20T03:35:38;6.00;99.90
45207;DHT22;30950;53.086;21.576;2023-12-20T03:38:06;6.00;99.90
45207;DHT22;30950;53.086;21.576;2023-12-20T03:40:33;6.00;99.90
45207;DHT22;30950;53.086;21.576;2023-12-20T03:43:01;6.00;99.90
45207;DHT22;30950;53.086;21.576;2023-12-20T03:45:28;6.00;99.90
45207;DHT22;30950;53.086;21.576;2023-12-20T03:47:56;6.00;99.90
45207;DHT22;30950;53.086;21.576;2023-12-20T03:50:24;6.00;99.90
45207;DHT22;30950;53.086;21.576;2023-12-20T03:52:52;6.00;99.90
45207;DHT22;30950;53.086;21.576;2023-12-20T03:55:19;6.00;99.90
45207;DHT22;30950;53.086;21.576;2023-12-20T03:57:47;6.00;99.90
45207;DHT22;30950;53.086;21.576;2023-12-20T04:00:15;6.10;99.90
45207;DHT22;30950;53.086;21.576;2023-12-20T04:02:43;6.00;99.90
45207;DHT22;30950;53.086;21.576;2023-12-20T04:05:10;6.00;99.90
45207;DHT22;30950;53.086;21.576;2023-12-20T04:07:38;6.00;99.90
45207;DHT22;30950;53.086;21.576;2023-12-20T04:10:06;6.00;99.90
45207;DHT22;30950;53.086;21.576;2023-12-20T04:12:33;6.10;99.90
45207;DHT22;30950;53.086;21.576;2023-12-20T04:15:01;5.90;99.90
45207;DHT22;30950;53.086;21.576;2023-12-20T04:17:29;6.00;99.90
45207;DHT22;30950;53.086;21.576;2023-12-20T04:19:56;6.10;99.90
45207;DHT22;30950;53.086;21.576;2023-12-20T04:22:24;6.10;99.90
45207;DHT22;30950;53.086;21.576;2023-12-20T04:24:51;6.10;99.90
45207;DHT22;30950;53.086;21.576;2023-12-20T04:27:19;6.10;99.90
45207;DHT22;30950;53.086;21.576;2023-12-20T04:29:46;6.10;99.90
45207;DHT22;30950;53.086;21.576;2023-12-20T04:32:14;6.10;99.90
45207;DHT22;30950;53.086;21.576;2023-12-20T04:34:41;6.10;99.90
45207;DHT22;30950;53.086;21.576;2023-12-20T04:37:09;6.10;99.90
45207;DHT22;30950;53.086;21.576;2023-12-20T04:39:36;6.10;99.90
45207;DHT22;30950;53.086;21.576;2023-12-20T04:42:04;6.10;99.90
45207;DHT22;30950;53.086;21.576;2023-12-20T04:44:31;6.10;99.90
45207;DHT22;30950;53.086;21.576;2023-12-20T04:46:59;6.10;99.90
45207;DHT22;30950;53.086;21.576;2023-12-20T04:49:27;6.10;99.90
45207;DHT22;30950;53.086;21.576;2023-12-20T04:51:54;6.10;99.90
45207;DHT22;30950;53.086;21.576;2023-12-20T04:54:22;6.10;99.90
45207;DHT22;30950;53.086;21.576;2023-12-20T04:56:50;6.10;99.90
45207;DHT22;30950;53.086;21.576;2023-12-20T04:59:17;6.10;99.90
45207;DHT22;30950;53.086;21.576;2023-12-20T05:01:45;6.10;99.90
45207;DHT22;30950;53.086;21.576;2023-12-20T05:04:12;6.10;99.90
45207;DHT22;30950;53.086;21.576;2023-12-20T05:06:40;6.20;99.90
45207;DHT22;30950;53.086;21.576;2023-12-20T05:09:08;6.20;99.90
45207;DHT22;30950;53.086;21.576;2023-12-20T05:11:36;6.20;99.90
45207;DHT22;30950;53.086;21.576;2023-12-20T05:14:03;6.20;99.90
45207;DHT22;30950;53.086;21.576;2023-12-20T05:16:31;6.10;99.90
45207;DHT22;30950;53.086;21.576;2023-12-20T05:18:58;6.20;99.90
45207;DHT22;30950;53.086;21.576;2023-12-20T05:21:28;6.20;99.90
45207;DHT22;30950;53.086;21.576;2023-12-20T05:23:55;6.20;99.90
45207;DHT22;30950;53.086;21.576;2023-12-20T05:26:23;6.20;99.90
45207;DHT22;30950;53.086;21.576;2023-12-20T05:28:50;6.20;99.90
45207;DHT22;30950;53.086;21.576;2023-12-20T05:31:18;6.20;99.90
45207;DHT22;30950;53.086;21.576;2023-12-20T05:33:45;6.20;99.90
45207;DHT22;30950;53.086;21.576;2023-12-20T05:36:13;6.20;99.90
45207;DHT22;30950;53.086;21.576;2023-12-20T05:38:42;6.20;99.90
45207;DHT22;30950;53.086;21.576;2023-12-20T05:41:10;6.20;99.90
45207;DHT22;30950;53.086;21.576;2023-12-20T05:43:37;6.20;99.90
45207;DHT22;30950;53.086;21.576;2023-12-20T05:46:05;6.30;99.90
45207;DHT22;30950;53.086;21.576;2023-12-20T05:48:32;6.30;99.90
45207;DHT22;30950;53.086;21.576;2023-12-20T05:51:00;6.30;99.90
45207;DHT22;30950;53.086;21.576;2023-12-20T05:53:27;6.30;99.90
45207;DHT22;30950;53.086;21.576;2023-12-20T05:55:55;6.30;99.90
45207;DHT22;30950;53.086;21.576;2023-12-20T05:58:23;6.40;99.90
45207;DHT22;30950;53.086;21.576;2023-12-20T06:00:50;6.30;99.90
45207;DHT22;30950;53.086;21.576;2023-12-20T06:03:18;6.30;99.90
45207;DHT22;30950;53.086;21.576;2023-12-20T06:05:46;6.30;99.90
45207;DHT22;30950;53.086;21.576;2023-12-20T06:08:13;6.30;99.90
45207;DHT22;30950;53.086;21.576;2023-12-20T06:10:41;6.30;99.90
45207;DHT22;30950;53.086;21.576;2023-12-20T06:13:08;6.40;99.90
45207;DHT22;30950;53.086;21.576;2023-12-20T06:15:36;6.40;99.90
45207;DHT22;30950;53.086;21.576;2023-12-20T06:18:03;6.40;99.90
45207;DHT22;30950;53.086;21.576;2023-12-20T06:20:32;6.40;99.90
45207;DHT22;30950;53.086;21.576;2023-12-20T06:22:59;6.40;99.90
45207;DHT22;30950;53.086;21.576;2023-12-20T06:25:26;6.40;99.90
45207;DHT22;30950;53.086;21.576;2023-12-20T06:27:54;6.40;99.90
45207;DHT22;30950;53.086;21.576;2023-12-20T06:30:21;6.40;99.90
45207;DHT22;30950;53.086;21.576;2023-12-20T06:32:49;6.40;99.90
45207;DHT22;30950;53.086;21.576;2023-12-20T06:35:16;6.40;99.90
45207;DHT22;30950;53.086;21.576;2023-12-20T06:37:44;6.40;99.90
45207;DHT22;30950;53.086;21.576;2023-12-20T06:40:12;6.40;99.90
45207;DHT22;30950;53.086;21.576;2023-12-20T06:42:44;6.40;99.90
45207;DHT22;30950;53.086;21.576;2023-12-20T06:45:25;6.50;99.90
45207;DHT22;30950;53.086;21.576;2023-12-20T06:47:53;6.50;99.90
45207;DHT22;30950;53.086;21.576;2023-12-20T06:50:22;6.50;99.90
45207;DHT22;30950;53.086;21.576;2023-12-20T06:52:49;6.50;99.90
45207;DHT22;30950;53.086;21.576;2023-12-20T06:55:16;6.40;99.90
45207;DHT22;30950;53.086;21.576;2023-12-20T06:57:44;6.50;99.90
45207;DHT22;30950;53.086;21.576;2023-12-20T07:00:13;6.50;99.90
45207;DHT22;30950;53.086;21.576;2023-12-20T07:02:40;6.50;99.90
45207;DHT22;30950;53.086;21.576;2023-12-20T07:05:08;6.50;99.90
45207;DHT22;30950;53.086;21.576;2023-12-20T07:07:35;6.50;99.90
45207;DHT22;30950;53.086;21.576;2023-12-20T07:10:03;6.60;99.90
45207;DHT22;30950;53.086;21.576;2023-12-20T07:12:31;6.60;99.90
45207;DHT22;30950;53.086;21.576;2023-12-20T07:14:58;6.60;99.90
45207;DHT22;30950;53.086;21.576;2023-12-20T07:17:26;6.60;99.90
45207;DHT22;30950;53.086;21.576;2023-12-20T07:19:54;6.60;99.90
45207;DHT22;30950;53.086;21.576;2023-12-20T07:22:22;6.50;99.90
45207;DHT22;30950;53.086;21.576;2023-12-20T07:24:50;6.60;99.90
45207;DHT22;30950;53.086;21.576;2023-12-20T07:27:19;6.60;99.90
45207;DHT22;30950;53.086;21.576;2023-12-20T07:29:47;6.60;99.90
45207;DHT22;30950;53.086;21.576;2023-12-20T07:32:14;6.60;99.90
45207;DHT22;30950;53.086;21.576;2023-12-20T07:34:42;6.60;99.90
45207;DHT22;30950;53.086;21.576;2023-12-20T07:37:09;6.60;99.90
45207;DHT22;30950;53.086;21.576;2023-12-20T07:39:41;6.60;99.90
45207;DHT22;30950;53.086;21.576;2023-12-20T07:42:08;6.60;99.90
45207;DHT22;30950;53.086;21.576;2023-12-20T07:44:36;6.60;99.90
45207;DHT22;30950;53.086;21.576;2023-12-20T07:47:04;6.60;99.90
45207;DHT22;30950;53.086;21.576;2023-12-20T07:49:32;6.60;99.90
45207;DHT22;30950;53.086;21.576;2023-12-20T07:51:59;6.70;99.90
45207;DHT22;30950;53.086;21.576;2023-12-20T07:54:27;6.70;99.90
45207;DHT22;30950;53.086;21.576;2023-12-20T07:56:55;6.70;99.90
45207;DHT22;30950;53.086;21.576;2023-12-20T07:59:23;6.70;99.90
45207;DHT22;30950;53.086;21.576;2023-12-20T08:01:59;6.70;99.90
45207;DHT22;30950;53.086;21.576;2023-12-20T08:04:27;6.70;99.90
45207;DHT22;30950;53.086;21.576;2023-12-20T08:06:55;6.60;99.90
45207;DHT22;30950;53.086;21.576;2023-12-20T08:09:23;6.70;99.90
45207;DHT22;30950;53.086;21.576;2023-12-20T08:11:50;6.70;99.90
45207;DHT22;30950;53.086;21.576;2023-12-20T08:14:18;6.70;99.90
45207;DHT22;30950;53.086;21.576;2023-12-20T08:16:45;6.70;99.90
45207;DHT22;30950;53.086;21.576;2023-12-20T08:19:13;6.70;99.90
45207;DHT22;30950;53.086;21.576;2023-12-20T08:21:41;6.70;99.90
45207;DHT22;30950;53.086;21.576;2023-12-20T08:24:08;6.00;99.90
45207;DHT22;30950;53.086;21.576;2023-12-20T08:26:36;6.70;99.90
45207;DHT22;30950;53.086;21.576;2023-12-20T08:29:03;6.70;99.90
45207;DHT22;30950;53.086;21.576;2023-12-20T08:31:30;6.70;99.90
45207;DHT22;30950;53.086;21.576;2023-12-20T08:33:58;6.80;99.90
45207;DHT22;30950;53.086;21.576;2023-12-20T08:36:25;6.80;99.90
45207;DHT22;30950;53.086;21.576;2023-12-20T08:38:53;6.80;99.90
45207;DHT22;30950;53.086;21.576;2023-12-20T08:41:22;6.80;99.90
45207;DHT22;30950;53.086;21.576;2023-12-20T08:43:50;6.80;99.90
45207;DHT22;30950;53.086;21.576;2023-12-20T08:46:18;6.80;99.90
45207;DHT22;30950;53.086;21.576;2023-12-20T08:48:46;6.80;99.90
45207;DHT22;30950;53.086;21.576;2023-12-20T08:51:13;6.80;99.90
45207;DHT22;30950;53.086;21.576;2023-12-20T08:53:41;6.80;99.90
45207;DHT22;30950;53.086;21.576;2023-12-20T08:56:08;6.80;99.90
45207;DHT22;30950;53.086;21.576;2023-12-20T08:58:36;6.70;99.90
45207;DHT22;30950;53.086;21.576;2023-12-20T09:01:04;6.70;99.90
45207;DHT22;30950;53.086;21.576;2023-12-20T09:03:32;6.70;99.90
45207;DHT22;30950;53.086;21.576;2023-12-20T09:06:00;6.60;99.90
45207;DHT22;30950;53.086;21.576;2023-12-20T09:08:28;6.60;99.90
45207;DHT22;30950;53.086;21.576;2023-12-20T09:10:55;6.50;99.90
45207;DHT22;30950;53.086;21.576;2023-12-20T09:13:24;6.50;99.90
45207;DHT22;30950;53.086;21.576;2023-12-20T09:15:59;6.50;99.90
45207;DHT22;30950;53.086;21.576;2023-12-20T09:18:27;6.50;99.90
45207;DHT22;30950;53.086;21.576;2023-12-20T09:20:54;6.50;99.90
45207;DHT22;30950;53.086;21.576;2023-12-20T09:23:22;6.50;99.90
45207;DHT22;30950;53.086;21.576;2023-12-20T09:25:50;6.40;99.90
45207;DHT22;30950;53.086;21.576;2023-12-20T09:28:20;6.50;99.90
45207;DHT22;30950;53.086;21.576;2023-12-20T09:30:47;6.40;99.90
45207;DHT22;30950;53.086;21.576;2023-12-20T09:33:15;6.40;99.90
45207;DHT22;30950;53.086;21.576;2023-12-20T09:35:43;6.50;99.90
45207;DHT22;30950;53.086;21.576;2023-12-20T09:38:11;6.40;99.90
45207;DHT22;30950;53.086;21.576;2023-12-20T09:40:41;6.40;99.90
45207;DHT22;30950;53.086;21.576;2023-12-20T09:43:19;6.40;99.90
45207;DHT22;30950;53.086;21.576;2023-12-20T09:45:48;6.40;99.90
45207;DHT22;30950;53.086;21.576;2023-12-20T09:48:18;6.30;99.90
45207;DHT22;30950;53.086;21.576;2023-12-20T09:50:47;6.30;99.90
45207;DHT22;30950;53.086;21.576;2023-12-20T09:53:21;6.30;99.90
45207;DHT22;30950;53.086;21.576;2023-12-20T09:55:51;6.30;99.90
45207;DHT22;30950;53.086;21.576;2023-12-20T09:58:20;6.30;99.90
45207;DHT22;30950;53.086;21.576;2023-12-20T10:00:47;6.30;99.90
45207;DHT22;30950;53.086;21.576;2023-12-20T10:03:16;6.40;99.90
45207;DHT22;30950;53.086;21.576;2023-12-20T10:05:44;6.40;99.90
45207;DHT22;30950;53.086;21.576;2023-12-20T10:08:12;6.40;99.90
45207;DHT22;30950;53.086;21.576;2023-12-20T10:10:40;6.40;99.90
45207;DHT22;30950;53.086;21.576;2023-12-20T10:13:15;6.50;99.90
45207;DHT22;30950;53.086;21.576;2023-12-20T10:15:43;6.50;99.90
45207;DHT22;30950;53.086;21.576;2023-12-20T10:18:12;6.50;99.90
45207;DHT22;30950;53.086;21.576;2023-12-20T10:20:41;6.50;99.90
45207;DHT22;30950;53.086;21.576;2023-12-20T10:23:10;6.50;99.90
45207;DHT22;30950;53.086;21.576;2023-12-20T10:25:38;6.60;99.90
45207;DHT22;30950;53.086;21.576;2023-12-20T10:28:13;6.60;99.90
45207;DHT22;30950;53.086;21.576;2023-12-20T10:30:41;6.60;99.90
45207;DHT22;30950;53.086;21.576;2023-12-20T10:33:10;6.60;99.90
45207;DHT22;30950;53.086;21.576;2023-12-20T10:35:39;6.70;99.90
45207;DHT22;30950;53.086;21.576;2023-12-20T10:38:12;6.70;99.90
45207;DHT22;30950;53.086;21.576;2023-12-20T10:40:42;6.70;99.90
45207;DHT22;30950;53.086;21.576;2023-12-20T10:43:12;6.80;99.90
45207;DHT22;30950;53.086;21.576;2023-12-20T10:45:42;6.80;99.90
45207;DHT22;30950;53.086;21.576;2023-12-20T10:48:12;6.80;99.90
45207;DHT22;30950;53.086;21.576;2023-12-20T10:50:41;6.90;99.90
45207;DHT22;30950;53.086;21.576;2023-12-20T10:53:09;6.90;99.90
45207;DHT22;30950;53.086;21.576;2023-12-20T10:55:39;6.90;99.90
45207;DHT22;30950;53.086;21.576;2023-12-20T10:58:08;6.90;99.90
45207;DHT22;30950;53.086;21.576;2023-12-20T11:00:40;6.90;99.90
45207;DHT22;30950;53.086;21.576;2023-12-20T11:03:12;6.90;99.90
45207;DHT22;30950;53.086;21.576;2023-12-20T11:05:50;6.90;99.90
45207;DHT22;30950;53.086;21.576;2023-12-20T11:08:33;6.90;99.90
45207;DHT22;30950;53.086;21.576;2023-12-20T11:14:08;6.90;99.90
45207;DHT22;30950;53.086;21.576;2023-12-20T11:16:41;6.80;99.90
45207;DHT22;30950;53.086;21.576;2023-12-20T11:19:21;6.70;99.90
45207;DHT22;30950;53.086;21.576;2023-12-20T11:21:48;6.80;99.90
45207;DHT22;30950;53.086;21.576;2023-12-20T11:24:17;6.80;99.90
45207;DHT22;30950;53.086;21.576;2023-12-20T11:26:48;6.80;99.90
45207;DHT22;30950;53.086;21.576;2023-12-20T11:29:34;6.80;99.90
45207;DHT22;30950;53.086;21.576;2023-12-20T11:32:03;6.80;99.90
45207;DHT22;30950;53.086;21.576;2023-12-20T11:34:35;6.80;99.90
45207;DHT22;30950;53.086;21.576;2023-12-20T11:37:03;6.80;99.90
45207;DHT22;30950;53.086;21.576;2023-12-20T11:39:31;6.80;99.90
45207;DHT22;30950;53.086;21.576;2023-12-20T11:42:04;6.70;99.90
45207;DHT22;30950;53.086;21.576;2023-12-20T11:44:33;6.70;99.90
45207;DHT22;30950;53.086;21.576;2023-12-20T11:47:01;6.70;99.90
45207;DHT22;30950;53.086;21.576;2023-12-20T11:49:29;6.70;99.90
45207;DHT22;30950;53.086;21.576;2023-12-20T11:51:58;6.70;99.90
45207;DHT22;30950;53.086;21.576;2023-12-20T11:54:29;6.70;99.90
45207;DHT22;30950;53.086;21.576;2023-12-20T11:56:57;6.70;99.90
45207;DHT22;30950;53.086;21.576;2023-12-20T11:59:25;6.50;99.90
45207;DHT22;30950;53.086;21.576;2023-12-20T12:01:52;6.60;99.90
45207;DHT22;30950;53.086;21.576;2023-12-20T12:04:20;6.60;99.90
45207;DHT22;30950;53.086;21.576;2023-12-20T12:06:48;6.60;99.90
45207;DHT22;30950;53.086;21.576;2023-12-20T12:09:16;6.60;99.90
45207;DHT22;30950;53.086;21.576;2023-12-20T12:11:44;6.50;99.90
45207;DHT22;30950;53.086;21.576;2023-12-20T12:14:13;6.50;99.90
45207;DHT22;30950;53.086;21.576;2023-12-20T12:16:42;6.40;99.90
45207;DHT22;30950;53.086;21.576;2023-12-20T12:19:20;6.40;99.90
45207;DHT22;30950;53.086;21.576;2023-12-20T12:21:49;6.30;99.90
45207;DHT22;30950;53.086;21.576;2023-12-20T12:24:20;6.30;99.90
45207;DHT22;30950;53.086;21.576;2023-12-20T12:26:57;6.30;99.90
45207;DHT22;30950;53.086;21.576;2023-12-20T12:29:27;6.30;99.90
45207;DHT22;30950;53.086;21.576;2023-12-20T12:31:54;6.20;99.90
45207;DHT22;30950;53.086;21.576;2023-12-20T12:34:22;6.20;99.90
45207;DHT22;30950;53.086;21.576;2023-12-20T12:36:50;6.20;99.90
45207;DHT22;30950;53.086;21.576;2023-12-20T12:39:18;6.20;99.90
45207;DHT22;30950;53.086;21.576;2023-12-20T12:41:45;6.10;99.90
45207;DHT22;30950;53.086;21.576;2023-12-20T12:44:13;6.20;99.90
45207;DHT22;30950;53.086;21.576;2023-12-20T12:46:45;6.10;99.90
45207;DHT22;30950;53.086;21.576;2023-12-20T12:49:13;6.00;99.90
45207;DHT22;30950;53.086;21.576;2023-12-20T12:51:41;6.00;99.90
45207;DHT22;30950;53.086;21.576;2023-12-20T12:54:08;6.00;99.90
45207;DHT22;30950;53.086;21.576;2023-12-20T12:56:37;6.00;99.90
45207;DHT22;30950;53.086;21.576;2023-12-20T12:59:05;6.70;99.90
45207;DHT22;30950;53.086;21.576;2023-12-20T13:01:33;5.90;99.90
45207;DHT22;30950;53.086;21.576;2023-12-20T13:04:00;5.70;99.90
45207;DHT22;30950;53.086;21.576;2023-12-20T13:06:34;5.80;99.90
45207;DHT22;30950;53.086;21.576;2023-12-20T13:09:01;5.80;99.90
45207;DHT22;30950;53.086;21.576;2023-12-20T13:11:29;5.80;99.90
45207;DHT22;30950;53.086;21.576;2023-12-20T13:13:58;5.80;99.90
45207;DHT22;30950;53.086;21.576;2023-12-20T13:16:26;5.80;99.90
45207;DHT22;30950;53.086;21.576;2023-12-20T13:18:54;5.80;99.90
45207;DHT22;30950;53.086;21.576;2023-12-20T13:21:21;5.80;99.90
45207;DHT22;30950;53.086;21.576;2023-12-20T13:23:49;5.80;99.90
45207;DHT22;30950;53.086;21.576;2023-12-20T13:26:16;5.80;99.90
45207;DHT22;30950;53.086;21.576;2023-12-20T13:28:44;5.70;99.90
45207;DHT22;30950;53.086;21.576;2023-12-20T13:31:12;5.70;99.90
45207;DHT22;30950;53.086;21.576;2023-12-20T13:33:39;5.70;99.90
45207;DHT22;30950;53.086;21.576;2023-12-20T13:36:07;5.80;99.90
45207;DHT22;30950;53.086;21.576;2023-12-20T13:38:36;5.80;99.90
45207;DHT22;30950;53.086;21.576;2023-12-20T13:41:03;5.80;99.90
45207;DHT22;30950;53.086;21.576;2023-12-20T13:43:32;5.40;99.90
45207;DHT22;30950;53.086;21.576;2023-12-20T13:46:00;5.80;99.90
45207;DHT22;30950;53.086;21.576;2023-12-20T13:48:27;5.80;99.90
45207;DHT22;30950;53.086;21.576;2023-12-20T13:50:55;5.80;99.90
45207;DHT22;30950;53.086;21.576;2023-12-20T13:53:23;5.70;99.90
45207;DHT22;30950;53.086;21.576;2023-12-20T13:55:50;5.70;99.90
45207;DHT22;30950;53.086;21.576;2023-12-20T13:58:18;5.70;99.90
45207;DHT22;30950;53.086;21.576;2023-12-20T14:00:45;5.70;99.90
45207;DHT22;30950;53.086;21.576;2023-12-20T14:03:13;5.70;99.90
45207;DHT22;30950;53.086;21.576;2023-12-20T14:05:40;5.60;99.90
45207;DHT22;30950;53.086;21.576;2023-12-20T14:08:08;5.60;99.90
45207;DHT22;30950;53.086;21.576;2023-12-20T14:10:37;5.60;99.90
45207;DHT22;30950;53.086;21.576;2023-12-20T14:13:05;5.60;99.90
45207;DHT22;30950;53.086;21.576;2023-12-20T14:15:33;5.60;99.90
45207;DHT22;30950;53.086;21.576;2023-12-20T14:18:05;5.50;99.90
45207;DHT22;30950;53.086;21.576;2023-12-20T14:20:36;5.50;99.90
45207;DHT22;30950;53.086;21.576;2023-12-20T14:23:04;5.50;99.90
45207;DHT22;30950;53.086;21.576;2023-12-20T14:25:31;5.50;99.90
45207;DHT22;30950;53.086;21.576;2023-12-20T14:28:12;5.50;99.90
45207;DHT22;30950;53.086;21.576;2023-12-20T14:30:41;5.50;99.90
45207;DHT22;30950;53.086;21.576;2023-12-20T14:33:09;5.50;99.90
45207;DHT22;30950;53.086;21.576;2023-12-20T14:35:36;5.50;99.90
45207;DHT22;30950;53.086;21.576;2023-12-20T14:38:04;5.40;99.90
45207;DHT22;30950;53.086;21.576;2023-12-20T14:40:31;5.50;99.90
45207;DHT22;30950;53.086;21.576;2023-12-20T14:42:59;5.50;99.90
45207;DHT22;30950;53.086;21.576;2023-12-20T14:45:27;5.50;99.90
45207;DHT22;30950;53.086;21.576;2023-12-20T14:47:54;5.60;99.90
45207;DHT22;30950;53.086;21.576;2023-12-20T14:50:22;5.60;99.90
45207;DHT22;30950;53.086;21.576;2023-12-20T14:52:51;5.60;99.90
45207;DHT22;30950;53.086;21.576;2023-12-20T14:55:21;5.60;99.90
45207;DHT22;30950;53.086;21.576;2023-12-20T14:57:49;5.50;99.90
45207;DHT22;30950;53.086;21.576;2023-12-20T15:00:16;5.50;99.90
45207;DHT22;30950;53.086;21.576;2023-12-20T15:02:45;5.50;99.90
45207;DHT22;30950;53.086;21.576;2023-12-20T15:05:13;5.50;99.90
45207;DHT22;30950;53.086;21.576;2023-12-20T15:07:42;5.50;99.90
45207;DHT22;30950;53.086;21.576;2023-12-20T15:10:09;5.50;99.90
45207;DHT22;30950;53.086;21.576;2023-12-20T15:12:36;5.50;99.90
45207;DHT22;30950;53.086;21.576;2023-12-20T15:15:04;5.50;99.90
45207;DHT22;30950;53.086;21.576;2023-12-20T15:17:32;5.50;99.90
45207;DHT22;30950;53.086;21.576;2023-12-20T15:20:00;5.50;99.90
45207;DHT22;30950;53.086;21.576;2023-12-20T15:22:28;5.50;99.90
45207;DHT22;30950;53.086;21.576;2023-12-20T15:24:55;5.50;99.90
45207;DHT22;30950;53.086;21.576;2023-12-20T15:27:23;5.50;99.90
45207;DHT22;30950;53.086;21.576;2023-12-20T15:29:51;5.50;99.90
45207;DHT22;30950;53.086;21.576;2023-12-20T15:32:19;5.50;99.90
45207;DHT22;30950;53.086;21.576;2023-12-20T15:34:46;5.50;99.90
45207;DHT22;30950;53.086;21.576;2023-12-20T15:37:14;5.50;99.90
45207;DHT22;30950;53.086;21.576;2023-12-20T15:39:41;5.50;99.90